createdAt,value
2017-01-27T00:06:01.438Z,-1.5
2017-01-27T00:16:15.687Z,-1.8
2017-01-27T00:26:30.015Z,-2.1
2017-01-27T00:36:43.755Z,-2.2
2017-01-27T00:46:57.702Z,-3
2017-01-27T00:57:12.069Z,-3
2017-01-27T01:07:26.508Z,-2.5
2017-01-27T01:17:40.803Z,-2.9
2017-01-27T01:27:55.295Z,-2.9
2017-01-27T01:38:08.777Z,-2.8
2017-01-27T01:48:23.660Z,-2.4
2017-01-27T01:58:36.710Z,-2.5
2017-01-27T02:08:50.900Z,-2.6
2017-01-27T02:19:05.880Z,-2.8
2017-01-27T02:29:18.970Z,-2.7
2017-01-27T02:39:32.534Z,-2.6
2017-01-27T02:49:46.012Z,-2.9
2017-01-27T03:00:00.493Z,-3.1
2017-01-27T03:10:15.460Z,-3.3
2017-01-27T03:20:29.585Z,-3.3
2017-01-27T03:30:43.283Z,-3.2
2017-01-27T03:40:57.120Z,-3.1
2017-01-27T03:51:12.038Z,-3.3
2017-01-27T04:01:25.959Z,-3
2017-01-27T04:11:38.413Z,-3.1
2017-01-27T04:21:53.357Z,-3
2017-01-27T04:42:22.057Z,-3.1
2017-01-27T04:52:36.409Z,-3.3
2017-01-27T05:02:48.918Z,-3.4
2017-01-27T05:13:03.521Z,-3.2
2017-01-27T05:23:17.325Z,-3
2017-01-27T05:33:30.701Z,-2.8
2017-01-27T05:43:44.140Z,-3
2017-01-27T05:53:57.845Z,-3.2
2017-01-27T06:04:11.272Z,-3.2
2017-01-27T06:14:26.038Z,-3.2
2017-01-27T06:24:38.961Z,-3.3
2017-01-27T06:34:54.292Z,-3.2
2017-01-27T06:45:07.864Z,-3.2
2017-01-27T06:55:21.219Z,-3.3
2017-01-27T07:05:35.817Z,-3.1
2017-01-27T07:15:49.240Z,-2.9
2017-01-27T07:26:03.783Z,-2.7
2017-01-27T07:36:16.274Z,-2.8
2017-01-27T07:46:31.232Z,-2.3
2017-01-27T07:56:45.163Z,-2.1
2017-01-27T08:06:58.178Z,-1.6
2017-01-27T08:17:12.972Z,-1.2
2017-01-27T08:27:26.853Z,-1.2
2017-01-27T08:37:40.281Z,-1.1
2017-01-27T08:47:53.394Z,-0.8
2017-01-27T08:58:07.678Z,-0.5
2017-01-27T09:08:21.144Z,-0.2
2017-01-27T09:18:34.301Z,0
2017-01-27T09:28:47.410Z,0.2
2017-01-27T09:39:01.118Z,0.5
2017-01-27T09:49:15.433Z,0.6
2017-01-27T09:59:29.614Z,0.9
2017-01-27T10:09:43.651Z,1.4
2017-01-27T10:19:57.354Z,1.8
2017-01-27T10:30:11.819Z,1.9
2017-01-27T10:40:26.480Z,2.2
2017-01-27T10:50:40.739Z,2.9
2017-01-27T11:00:55.770Z,3.8
2017-01-27T11:11:09.826Z,3.9
2017-01-27T11:21:23.696Z,4.1
2017-01-27T11:31:38.263Z,4.9
2017-01-27T11:41:51.599Z,4.6
2017-01-27T11:52:05.979Z,5.1
2017-01-27T12:02:19.745Z,5.4
2017-01-27T12:12:34.637Z,5.7
2017-01-27T12:22:49.490Z,6
2017-01-27T12:33:02.813Z,6.4
2017-01-27T12:43:17.260Z,6.6
2017-01-27T12:53:31.079Z,6.5
2017-01-27T13:03:45.350Z,6.8
2017-01-27T13:13:58.425Z,6.6
2017-01-27T13:24:12.662Z,6.6
2017-01-27T13:34:27.080Z,6.6
2017-01-27T13:44:40.589Z,6.6
2017-01-27T13:54:55.130Z,6.3
2017-01-27T14:05:08.639Z,6
2017-01-27T14:15:23.251Z,5.9
2017-01-27T14:25:36.604Z,5.9
2017-01-27T14:35:50.061Z,5.9
2017-01-27T14:46:04.824Z,5.9
2017-01-27T14:56:19.220Z,5.7
2017-01-27T15:06:33.681Z,5.7
2017-01-27T15:16:48.326Z,5.9
2017-01-27T15:27:02.493Z,5.9
2017-01-27T15:37:16.547Z,6.2
2017-01-27T15:47:30.423Z,5.9
2017-01-27T15:57:45.483Z,5.9
2017-01-27T16:07:58.636Z,5.2
2017-01-27T16:18:12.397Z,5
2017-01-27T16:28:25.821Z,5.3
2017-01-27T16:38:39.891Z,4.9
2017-01-27T16:48:54.602Z,5.2
2017-01-27T16:59:08.429Z,5.2
2017-01-27T17:09:22.962Z,4.5
2017-01-27T17:19:36.739Z,4.8
2017-01-27T17:29:50.998Z,4.7
2017-01-27T17:40:05.738Z,4.8
2017-01-27T17:50:20.537Z,4.5
2017-01-27T18:00:34.097Z,3.7
2017-01-27T18:10:47.692Z,4
2017-01-27T18:21:00.858Z,2.9
2017-01-27T18:31:15.577Z,3.5
2017-01-27T18:41:28.916Z,4.3
2017-01-27T18:51:42.684Z,4
2017-01-27T19:01:56.384Z,3.7
2017-01-27T19:12:09.452Z,3.3
2017-01-27T19:22:24.101Z,2.8
2017-01-27T19:32:38.382Z,2.4
2017-01-27T19:42:51.654Z,3.5
2017-01-27T19:53:05.214Z,2.4
2017-01-27T20:03:20.017Z,2.7
2017-01-27T20:13:34.874Z,2.4
2017-01-27T20:23:47.924Z,2.7
2017-01-27T20:34:01.417Z,3
2017-01-27T20:44:15.148Z,2.4
2017-01-27T20:54:29.714Z,2.7
2017-01-27T21:04:43.257Z,3
2017-01-27T21:14:58.228Z,3
2017-01-27T21:25:12.398Z,2.9
2017-01-27T21:35:26.113Z,3
2017-01-27T21:45:40.531Z,2.3
2017-01-27T21:55:54.437Z,2
2017-01-27T22:06:07.793Z,2.3
2017-01-27T22:16:21.417Z,1.8
2017-01-27T22:26:35.248Z,1.1
2017-01-27T22:36:48.900Z,1.5
2017-01-27T22:47:02.840Z,1.6
2017-01-27T22:57:16.512Z,2
2017-01-27T23:07:30.976Z,1.4
2017-01-27T23:17:44.098Z,0.7
2017-01-27T23:27:57.217Z,0.5
2017-01-27T23:38:11.988Z,0.6
2017-01-27T23:48:25.721Z,0.5
2017-01-27T23:58:39.901Z,0.3
